sensor_id;sensor_type;location;lat;lon;timestamp;temperature;humidity
4596;DHT22;2310;49.978;8.742;2023-12-28T00:00:46;9.80;99.90
4596;DHT22;2310;49.978;8.742;2023-12-28T00:04:49;9.60;99.90
4596;DHT22;2310;49.978;8.742;2023-12-28T00:08:51;9.40;99.90
4596;DHT22;2310;49.978;8.742;2023-12-28T00:12:54;9.50;99.90
4596;DHT22;2310;49.978;8.742;2023-12-28T00:16:58;9.40;99.90
4596;DHT22;2310;49.978;8.742;2023-12-28T00:21:00;9.40;99.90
4596;DHT22;2310;49.978;8.742;2023-12-28T00:25:01;9.40;99.90
4596;DHT22;2310;49.978;8.742;2023-12-28T00:29:03;9.30;99.90
4596;DHT22;2310;49.978;8.742;2023-12-28T00:33:05;9.20;99.90
4596;DHT22;2310;49.978;8.742;2023-12-28T00:37:06;9.30;99.90
4596;DHT22;2310;49.978;8.742;2023-12-28T00:41:08;9.40;99.90
4596;DHT22;2310;49.978;8.742;2023-12-28T00:45:09;9.40;99.90
4596;DHT22;2310;49.978;8.742;2023-12-28T00:49:11;9.60;99.90
4596;DHT22;2310;49.978;8.742;2023-12-28T00:53:13;9.60;99.90
4596;DHT22;2310;49.978;8.742;2023-12-28T00:57:14;9.70;99.90
4596;DHT22;2310;49.978;8.742;2023-12-28T01:01:15;9.70;99.90
4596;DHT22;2310;49.978;8.742;2023-12-28T01:05:17;9.80;99.90
4596;DHT22;2310;49.978;8.742;2023-12-28T01:09:19;9.90;99.90
4596;DHT22;2310;49.978;8.742;2023-12-28T01:13:21;9.90;99.10
4596;DHT22;2310;49.978;8.742;2023-12-28T01:17:23;9.90;99.00
4596;DHT22;2310;49.978;8.742;2023-12-28T01:21:24;10.00;95.20
4596;DHT22;2310;49.978;8.742;2023-12-28T01:25:26;10.20;95.40
4596;DHT22;2310;49.978;8.742;2023-12-28T01:29:27;10.40;95.70
4596;DHT22;2310;49.978;8.742;2023-12-28T01:33:28;10.50;93.00
4596;DHT22;2310;49.978;8.742;2023-12-28T01:37:30;10.60;90.10
4596;DHT22;2310;49.978;8.742;2023-12-28T01:41:34;10.70;90.40
4596;DHT22;2310;49.978;8.742;2023-12-28T01:45:36;10.70;89.30
4596;DHT22;2310;49.978;8.742;2023-12-28T01:49:38;10.80;90.70
4596;DHT22;2310;49.978;8.742;2023-12-28T01:53:41;10.80;86.50
4596;DHT22;2310;49.978;8.742;2023-12-28T01:57:43;10.90;87.50
4596;DHT22;2310;49.978;8.742;2023-12-28T02:01:44;10.90;91.40
4596;DHT22;2310;49.978;8.742;2023-12-28T02:05:46;10.90;93.60
4596;DHT22;2310;49.978;8.742;2023-12-28T02:09:47;11.00;91.90
4596;DHT22;2310;49.978;8.742;2023-12-28T02:13:49;10.90;87.00
4596;DHT22;2310;49.978;8.742;2023-12-28T02:18:09;10.90;90.60
4596;DHT22;2310;49.978;8.742;2023-12-28T02:22:12;10.90;90.10
4596;DHT22;2310;49.978;8.742;2023-12-28T02:26:15;11.00;87.30
4596;DHT22;2310;49.978;8.742;2023-12-28T02:30:20;11.00;91.00
4596;DHT22;2310;49.978;8.742;2023-12-28T02:34:29;10.90;90.50
4596;DHT22;2310;49.978;8.742;2023-12-28T02:38:33;11.10;92.00
4596;DHT22;2310;49.978;8.742;2023-12-28T02:42:36;11.10;90.40
4596;DHT22;2310;49.978;8.742;2023-12-28T02:46:37;11.10;91.50
4596;DHT22;2310;49.978;8.742;2023-12-28T02:50:38;11.10;92.30
4596;DHT22;2310;49.978;8.742;2023-12-28T02:54:40;11.10;94.00
4596;DHT22;2310;49.978;8.742;2023-12-28T02:58:41;11.00;95.60
4596;DHT22;2310;49.978;8.742;2023-12-28T03:02:43;11.10;96.00
4596;DHT22;2310;49.978;8.742;2023-12-28T03:06:46;11.00;97.90
4596;DHT22;2310;49.978;8.742;2023-12-28T03:10:47;11.00;99.50
4596;DHT22;2310;49.978;8.742;2023-12-28T03:14:49;10.90;99.90
4596;DHT22;2310;49.978;8.742;2023-12-28T03:18:52;10.80;99.90
4596;DHT22;2310;49.978;8.742;2023-12-28T03:22:54;10.90;99.90
4596;DHT22;2310;49.978;8.742;2023-12-28T03:26:56;10.90;99.90
4596;DHT22;2310;49.978;8.742;2023-12-28T03:30:57;10.80;99.90
4596;DHT22;2310;49.978;8.742;2023-12-28T03:35:00;10.90;99.90
4596;DHT22;2310;49.978;8.742;2023-12-28T03:39:01;10.90;99.90
4596;DHT22;2310;49.978;8.742;2023-12-28T03:43:04;10.80;99.90
4596;DHT22;2310;49.978;8.742;2023-12-28T03:47:07;10.70;99.90
4596;DHT22;2310;49.978;8.742;2023-12-28T03:51:14;10.80;99.90
4596;DHT22;2310;49.978;8.742;2023-12-28T03:55:16;10.80;99.90
4596;DHT22;2310;49.978;8.742;2023-12-28T03:59:17;10.80;99.90
4596;DHT22;2310;49.978;8.742;2023-12-28T04:03:19;10.60;99.90
4596;DHT22;2310;49.978;8.742;2023-12-28T04:07:20;10.50;99.90
4596;DHT22;2310;49.978;8.742;2023-12-28T04:11:21;10.70;99.90
4596;DHT22;2310;49.978;8.742;2023-12-28T04:15:28;10.70;99.90
4596;DHT22;2310;49.978;8.742;2023-12-28T04:19:30;10.60;99.90
4596;DHT22;2310;49.978;8.742;2023-12-28T04:23:32;10.80;99.90
4596;DHT22;2310;49.978;8.742;2023-12-28T04:27:33;10.60;99.90
4596;DHT22;2310;49.978;8.742;2023-12-28T04:31:40;10.70;99.90
4596;DHT22;2310;49.978;8.742;2023-12-28T04:35:43;10.40;99.90
4596;DHT22;2310;49.978;8.742;2023-12-28T04:39:45;10.50;99.90
4596;DHT22;2310;49.978;8.742;2023-12-28T04:43:46;10.60;99.90
4596;DHT22;2310;49.978;8.742;2023-12-28T04:47:48;10.60;99.90
4596;DHT22;2310;49.978;8.742;2023-12-28T04:51:49;10.40;99.90
4596;DHT22;2310;49.978;8.742;2023-12-28T04:55:51;10.50;99.90
4596;DHT22;2310;49.978;8.742;2023-12-28T04:59:52;10.40;99.90
4596;DHT22;2310;49.978;8.742;2023-12-28T05:03:53;10.30;99.90
4596;DHT22;2310;49.978;8.742;2023-12-28T05:07:57;10.40;99.90
4596;DHT22;2310;49.978;8.742;2023-12-28T05:11:59;10.30;99.90
4596;DHT22;2310;49.978;8.742;2023-12-28T05:16:00;10.30;99.90
4596;DHT22;2310;49.978;8.742;2023-12-28T05:20:02;10.40;99.90
4596;DHT22;2310;49.978;8.742;2023-12-28T05:24:04;10.40;99.90
4596;DHT22;2310;49.978;8.742;2023-12-28T05:28:05;10.60;99.90
4596;DHT22;2310;49.978;8.742;2023-12-28T05:32:07;10.60;99.90
4596;DHT22;2310;49.978;8.742;2023-12-28T05:36:08;10.60;99.90
4596;DHT22;2310;49.978;8.742;2023-12-28T05:40:13;10.70;99.90
4596;DHT22;2310;49.978;8.742;2023-12-28T05:44:14;10.70;99.90
4596;DHT22;2310;49.978;8.742;2023-12-28T05:48:16;10.90;99.90
4596;DHT22;2310;49.978;8.742;2023-12-28T05:52:18;10.80;99.90
4596;DHT22;2310;49.978;8.742;2023-12-28T05:56:21;10.60;99.90
4596;DHT22;2310;49.978;8.742;2023-12-28T06:00:22;10.60;99.90
4596;DHT22;2310;49.978;8.742;2023-12-28T06:04:24;10.60;99.90
4596;DHT22;2310;49.978;8.742;2023-12-28T06:08:25;10.50;99.90
4596;DHT22;2310;49.978;8.742;2023-12-28T06:12:30;10.50;99.90
4596;DHT22;2310;49.978;8.742;2023-12-28T06:16:32;10.40;99.90
4596;DHT22;2310;49.978;8.742;2023-12-28T06:20:34;10.50;99.90
4596;DHT22;2310;49.978;8.742;2023-12-28T06:24:38;10.50;99.90
4596;DHT22;2310;49.978;8.742;2023-12-28T06:28:40;10.50;99.90
4596;DHT22;2310;49.978;8.742;2023-12-28T06:32:41;10.40;99.90
4596;DHT22;2310;49.978;8.742;2023-12-28T06:36:43;10.50;99.90
4596;DHT22;2310;49.978;8.742;2023-12-28T06:40:44;10.50;99.90
4596;DHT22;2310;49.978;8.742;2023-12-28T06:44:46;10.50;99.90
4596;DHT22;2310;49.978;8.742;2023-12-28T06:48:47;10.50;99.90
4596;DHT22;2310;49.978;8.742;2023-12-28T06:52:49;10.50;99.90
4596;DHT22;2310;49.978;8.742;2023-12-28T06:56:50;10.40;99.90
4596;DHT22;2310;49.978;8.742;2023-12-28T07:00:53;10.60;99.90
4596;DHT22;2310;49.978;8.742;2023-12-28T07:04:57;10.60;99.90
4596;DHT22;2310;49.978;8.742;2023-12-28T07:08:58;10.50;99.90
4596;DHT22;2310;49.978;8.742;2023-12-28T07:12:59;10.50;99.90
4596;DHT22;2310;49.978;8.742;2023-12-28T07:17:01;10.50;99.90
4596;DHT22;2310;49.978;8.742;2023-12-28T07:21:02;10.60;99.90
4596;DHT22;2310;49.978;8.742;2023-12-28T07:25:07;10.60;99.90
4596;DHT22;2310;49.978;8.742;2023-12-28T07:29:09;10.50;99.90
4596;DHT22;2310;49.978;8.742;2023-12-28T07:33:10;10.50;99.90
4596;DHT22;2310;49.978;8.742;2023-12-28T07:37:14;10.60;99.90
4596;DHT22;2310;49.978;8.742;2023-12-28T07:41:16;10.60;99.90
4596;DHT22;2310;49.978;8.742;2023-12-28T07:45:17;10.50;99.90
4596;DHT22;2310;49.978;8.742;2023-12-28T07:49:21;10.60;99.90
4596;DHT22;2310;49.978;8.742;2023-12-28T07:53:24;10.80;99.90
4596;DHT22;2310;49.978;8.742;2023-12-28T07:57:25;10.70;99.90
4596;DHT22;2310;49.978;8.742;2023-12-28T08:01:27;10.80;99.90
4596;DHT22;2310;49.978;8.742;2023-12-28T08:05:30;10.70;99.90
4596;DHT22;2310;49.978;8.742;2023-12-28T08:09:31;10.90;99.90
4596;DHT22;2310;49.978;8.742;2023-12-28T08:13:33;10.80;99.90
4596;DHT22;2310;49.978;8.742;2023-12-28T08:17:34;10.80;99.90
4596;DHT22;2310;49.978;8.742;2023-12-28T08:21:36;10.70;99.90
4596;DHT22;2310;49.978;8.742;2023-12-28T08:25:38;10.60;99.90
4596;DHT22;2310;49.978;8.742;2023-12-28T08:29:41;10.50;99.90
4596;DHT22;2310;49.978;8.742;2023-12-28T08:33:50;10.70;99.90
4596;DHT22;2310;49.978;8.742;2023-12-28T08:37:51;10.70;99.90
4596;DHT22;2310;49.978;8.742;2023-12-28T08:41:53;10.80;99.90
4596;DHT22;2310;49.978;8.742;2023-12-28T08:45:55;10.80;99.90
4596;DHT22;2310;49.978;8.742;2023-12-28T08:49:58;10.80;99.90
4596;DHT22;2310;49.978;8.742;2023-12-28T08:54:00;10.80;99.90
4596;DHT22;2310;49.978;8.742;2023-12-28T08:58:01;10.70;99.90
4596;DHT22;2310;49.978;8.742;2023-12-28T09:02:04;10.80;99.90
4596;DHT22;2310;49.978;8.742;2023-12-28T09:06:05;10.80;99.90
4596;DHT22;2310;49.978;8.742;2023-12-28T09:10:07;10.80;99.90
4596;DHT22;2310;49.978;8.742;2023-12-28T09:14:08;11.00;99.90
4596;DHT22;2310;49.978;8.742;2023-12-28T09:18:10;11.10;99.90
4596;DHT22;2310;49.978;8.742;2023-12-28T09:22:11;11.00;99.90
4596;DHT22;2310;49.978;8.742;2023-12-28T09:26:13;10.90;99.90
4596;DHT22;2310;49.978;8.742;2023-12-28T09:30:15;11.10;99.90
4596;DHT22;2310;49.978;8.742;2023-12-28T09:34:16;11.00;99.90
4596;DHT22;2310;49.978;8.742;2023-12-28T09:38:18;11.10;99.90
4596;DHT22;2310;49.978;8.742;2023-12-28T09:42:29;11.20;99.90
4596;DHT22;2310;49.978;8.742;2023-12-28T09:46:31;11.20;99.90
4596;DHT22;2310;49.978;8.742;2023-12-28T09:50:34;11.30;99.90
4596;DHT22;2310;49.978;8.742;2023-12-28T09:54:38;11.50;99.90
4596;DHT22;2310;49.978;8.742;2023-12-28T09:58:40;11.90;99.90
4596;DHT22;2310;49.978;8.742;2023-12-28T10:02:44;11.90;99.90
4596;DHT22;2310;49.978;8.742;2023-12-28T10:06:46;12.00;99.90
4596;DHT22;2310;49.978;8.742;2023-12-28T10:10:49;12.10;99.90
4596;DHT22;2310;49.978;8.742;2023-12-28T10:14:55;12.30;99.90
4596;DHT22;2310;49.978;8.742;2023-12-28T10:18:57;12.20;99.90
4596;DHT22;2310;49.978;8.742;2023-12-28T10:22:59;12.20;99.90
4596;DHT22;2310;49.978;8.742;2023-12-28T10:27:02;12.40;99.90
4596;DHT22;2310;49.978;8.742;2023-12-28T10:31:03;12.40;99.90
4596;DHT22;2310;49.978;8.742;2023-12-28T10:35:06;12.40;99.90
4596;DHT22;2310;49.978;8.742;2023-12-28T10:39:11;12.80;99.90
4596;DHT22;2310;49.978;8.742;2023-12-28T10:43:16;13.00;99.90
4596;DHT22;2310;49.978;8.742;2023-12-28T10:47:19;12.80;99.90
4596;DHT22;2310;49.978;8.742;2023-12-28T10:51:23;12.70;99.90
4596;DHT22;2310;49.978;8.742;2023-12-28T10:55:39;12.90;99.90
4596;DHT22;2310;49.978;8.742;2023-12-28T11:00:00;12.90;99.90
4596;DHT22;2310;49.978;8.742;2023-12-28T11:08:21;13.10;99.90
4596;DHT22;2310;49.978;8.742;2023-12-28T11:12:23;13.30;99.90
4596;DHT22;2310;49.978;8.742;2023-12-28T11:16:27;13.10;99.90
4596;DHT22;2310;49.978;8.742;2023-12-28T11:20:29;12.90;99.90
4596;DHT22;2310;49.978;8.742;2023-12-28T11:24:32;13.10;99.90
4596;DHT22;2310;49.978;8.742;2023-12-28T11:28:34;13.10;99.90
4596;DHT22;2310;49.978;8.742;2023-12-28T11:32:36;13.20;99.90
4596;DHT22;2310;49.978;8.742;2023-12-28T11:36:43;13.40;99.90
4596;DHT22;2310;49.978;8.742;2023-12-28T11:40:47;13.70;99.90
4596;DHT22;2310;49.978;8.742;2023-12-28T11:44:54;13.60;99.90
4596;DHT22;2310;49.978;8.742;2023-12-28T11:49:06;13.70;99.90
4596;DHT22;2310;49.978;8.742;2023-12-28T11:53:12;14.00;99.90
4596;DHT22;2310;49.978;8.742;2023-12-28T11:57:15;14.00;99.90
4596;DHT22;2310;49.978;8.742;2023-12-28T12:01:17;13.60;99.90
4596;DHT22;2310;49.978;8.742;2023-12-28T12:05:21;13.50;99.90
4596;DHT22;2310;49.978;8.742;2023-12-28T12:09:23;13.60;99.90
4596;DHT22;2310;49.978;8.742;2023-12-28T12:13:25;13.30;99.90
4596;DHT22;2310;49.978;8.742;2023-12-28T12:17:27;13.20;99.90
4596;DHT22;2310;49.978;8.742;2023-12-28T12:21:29;14.00;99.90
4596;DHT22;2310;49.978;8.742;2023-12-28T12:25:30;13.80;99.90
4596;DHT22;2310;49.978;8.742;2023-12-28T12:29:33;13.90;99.90
4596;DHT22;2310;49.978;8.742;2023-12-28T12:33:34;13.80;99.90
4596;DHT22;2310;49.978;8.742;2023-12-28T12:37:37;13.70;99.90
4596;DHT22;2310;49.978;8.742;2023-12-28T12:41:38;13.90;99.90
4596;DHT22;2310;49.978;8.742;2023-12-28T12:45:40;13.60;99.90
4596;DHT22;2310;49.978;8.742;2023-12-28T12:49:41;13.60;99.90
4596;DHT22;2310;49.978;8.742;2023-12-28T12:53:45;13.20;99.90
4596;DHT22;2310;49.978;8.742;2023-12-28T12:57:46;13.10;99.90
4596;DHT22;2310;49.978;8.742;2023-12-28T13:01:48;13.20;99.90
4596;DHT22;2310;49.978;8.742;2023-12-28T13:05:49;13.00;99.90
4596;DHT22;2310;49.978;8.742;2023-12-28T13:09:51;12.90;99.90
4596;DHT22;2310;49.978;8.742;2023-12-28T13:13:53;12.50;99.90
4596;DHT22;2310;49.978;8.742;2023-12-28T13:17:56;12.60;99.90
4596;DHT22;2310;49.978;8.742;2023-12-28T13:21:57;12.80;99.90
4596;DHT22;2310;49.978;8.742;2023-12-28T13:25:58;12.70;99.90
4596;DHT22;2310;49.978;8.742;2023-12-28T13:30:00;12.70;99.90
4596;DHT22;2310;49.978;8.742;2023-12-28T13:34:02;12.20;99.90
4596;DHT22;2310;49.978;8.742;2023-12-28T13:38:04;12.40;99.90
4596;DHT22;2310;49.978;8.742;2023-12-28T13:42:06;12.10;99.90
4596;DHT22;2310;49.978;8.742;2023-12-28T13:46:08;12.40;99.90
4596;DHT22;2310;49.978;8.742;2023-12-28T13:50:10;12.30;99.90
4596;DHT22;2310;49.978;8.742;2023-12-28T13:54:12;12.00;99.90
4596;DHT22;2310;49.978;8.742;2023-12-28T13:58:13;12.00;99.90
4596;DHT22;2310;49.978;8.742;2023-12-28T14:02:14;11.80;99.90
4596;DHT22;2310;49.978;8.742;2023-12-28T14:06:16;12.00;99.90
4596;DHT22;2310;49.978;8.742;2023-12-28T14:10:17;11.90;99.90
4596;DHT22;2310;49.978;8.742;2023-12-28T14:14:21;11.80;99.90
4596;DHT22;2310;49.978;8.742;2023-12-28T14:18:22;11.80;99.90
4596;DHT22;2310;49.978;8.742;2023-12-28T14:22:25;11.60;99.90
4596;DHT22;2310;49.978;8.742;2023-12-28T14:26:27;11.80;99.90
4596;DHT22;2310;49.978;8.742;2023-12-28T14:30:29;11.70;99.90
4596;DHT22;2310;49.978;8.742;2023-12-28T14:34:31;11.80;99.90
4596;DHT22;2310;49.978;8.742;2023-12-28T14:38:33;11.70;99.90
4596;DHT22;2310;49.978;8.742;2023-12-28T14:42:41;11.60;99.90
4596;DHT22;2310;49.978;8.742;2023-12-28T14:46:40;11.70;99.90
4596;DHT22;2310;49.978;8.742;2023-12-28T14:50:42;11.60;99.90
4596;DHT22;2310;49.978;8.742;2023-12-28T14:54:43;11.60;99.90
4596;DHT22;2310;49.978;8.742;2023-12-28T14:58:45;11.60;99.90
4596;DHT22;2310;49.978;8.742;2023-12-28T15:02:48;11.60;99.90
4596;DHT22;2310;49.978;8.742;2023-12-28T15:06:50;11.60;99.90
4596;DHT22;2310;49.978;8.742;2023-12-28T15:10:53;11.50;99.90
4596;DHT22;2310;49.978;8.742;2023-12-28T15:14:55;11.20;99.90
4596;DHT22;2310;49.978;8.742;2023-12-28T15:18:57;11.40;99.90
4596;DHT22;2310;49.978;8.742;2023-12-28T15:22:59;11.30;99.90
4596;DHT22;2310;49.978;8.742;2023-12-28T15:27:00;11.40;99.90
4596;DHT22;2310;49.978;8.742;2023-12-28T15:31:03;11.40;99.90
4596;DHT22;2310;49.978;8.742;2023-12-28T15:35:06;11.40;99.90
4596;DHT22;2310;49.978;8.742;2023-12-28T15:39:08;11.40;99.90
4596;DHT22;2310;49.978;8.742;2023-12-28T15:43:10;11.30;99.90
4596;DHT22;2310;49.978;8.742;2023-12-28T15:47:11;11.30;99.90
4596;DHT22;2310;49.978;8.742;2023-12-28T15:51:13;11.30;99.90
4596;DHT22;2310;49.978;8.742;2023-12-28T15:55:14;11.20;99.90
4596;DHT22;2310;49.978;8.742;2023-12-28T15:59:15;11.30;99.90
4596;DHT22;2310;49.978;8.742;2023-12-28T16:03:17;11.30;99.90
4596;DHT22;2310;49.978;8.742;2023-12-28T16:07:19;11.20;99.90
4596;DHT22;2310;49.978;8.742;2023-12-28T16:11:21;11.20;99.90
4596;DHT22;2310;49.978;8.742;2023-12-28T16:15:22;11.20;99.90
4596;DHT22;2310;49.978;8.742;2023-12-28T16:19:24;11.00;99.90
4596;DHT22;2310;49.978;8.742;2023-12-28T16:23:26;10.70;99.90
4596;DHT22;2310;49.978;8.742;2023-12-28T16:27:27;10.90;99.90
4596;DHT22;2310;49.978;8.742;2023-12-28T16:31:29;11.10;99.90
4596;DHT22;2310;49.978;8.742;2023-12-28T16:35:31;10.80;99.90
4596;DHT22;2310;49.978;8.742;2023-12-28T16:39:32;10.80;99.90
4596;DHT22;2310;49.978;8.742;2023-12-28T16:43:34;10.80;99.90
4596;DHT22;2310;49.978;8.742;2023-12-28T16:47:42;10.70;99.90
4596;DHT22;2310;49.978;8.742;2023-12-28T16:51:46;10.80;99.90
4596;DHT22;2310;49.978;8.742;2023-12-28T16:55:50;10.70;99.90
4596;DHT22;2310;49.978;8.742;2023-12-28T16:59:51;10.60;99.90
4596;DHT22;2310;49.978;8.742;2023-12-28T17:03:55;10.70;99.90
4596;DHT22;2310;49.978;8.742;2023-12-28T17:07:56;10.70;99.90
4596;DHT22;2310;49.978;8.742;2023-12-28T17:12:26;10.60;99.90
4596;DHT22;2310;49.978;8.742;2023-12-28T17:16:29;10.60;99.90
4596;DHT22;2310;49.978;8.742;2023-12-28T17:20:32;10.60;99.90
4596;DHT22;2310;49.978;8.742;2023-12-28T17:24:40;10.50;99.90
4596;DHT22;2310;49.978;8.742;2023-12-28T17:33:06;10.70;99.90
4596;DHT22;2310;49.978;8.742;2023-12-28T17:37:09;10.60;99.90
4596;DHT22;2310;49.978;8.742;2023-12-28T17:41:12;10.60;99.90
4596;DHT22;2310;49.978;8.742;2023-12-28T17:45:30;10.70;99.90
4596;DHT22;2310;49.978;8.742;2023-12-28T17:49:29;10.70;99.90
4596;DHT22;2310;49.978;8.742;2023-12-28T17:53:31;10.60;99.90
4596;DHT22;2310;49.978;8.742;2023-12-28T17:57:33;10.40;99.90
4596;DHT22;2310;49.978;8.742;2023-12-28T18:01:34;10.30;99.90
4596;DHT22;2310;49.978;8.742;2023-12-28T18:05:37;10.40;99.90
4596;DHT22;2310;49.978;8.742;2023-12-28T18:09:38;10.60;99.90
4596;DHT22;2310;49.978;8.742;2023-12-28T18:13:42;10.40;99.90
4596;DHT22;2310;49.978;8.742;2023-12-28T18:17:44;10.40;99.90
4596;DHT22;2310;49.978;8.742;2023-12-28T18:21:45;10.50;99.90
4596;DHT22;2310;49.978;8.742;2023-12-28T18:25:49;10.50;99.90
4596;DHT22;2310;49.978;8.742;2023-12-28T18:29:51;10.30;99.90
4596;DHT22;2310;49.978;8.742;2023-12-28T18:33:54;10.40;99.90
4596;DHT22;2310;49.978;8.742;2023-12-28T18:37:57;10.30;99.90
4596;DHT22;2310;49.978;8.742;2023-12-28T18:41:59;10.50;99.90
4596;DHT22;2310;49.978;8.742;2023-12-28T18:46:00;10.50;99.90
4596;DHT22;2310;49.978;8.742;2023-12-28T18:50:02;10.50;99.90
4596;DHT22;2310;49.978;8.742;2023-12-28T18:54:05;10.50;99.90
4596;DHT22;2310;49.978;8.742;2023-12-28T18:58:09;10.50;99.90
4596;DHT22;2310;49.978;8.742;2023-12-28T19:02:11;10.40;99.90
4596;DHT22;2310;49.978;8.742;2023-12-28T19:06:13;10.40;99.90
4596;DHT22;2310;49.978;8.742;2023-12-28T19:10:15;10.40;99.90
4596;DHT22;2310;49.978;8.742;2023-12-28T19:14:18;10.50;99.90
4596;DHT22;2310;49.978;8.742;2023-12-28T19:18:20;10.60;99.90
4596;DHT22;2310;49.978;8.742;2023-12-28T19:22:21;10.50;99.90
4596;DHT22;2310;49.978;8.742;2023-12-28T19:26:23;10.50;99.90
4596;DHT22;2310;49.978;8.742;2023-12-28T19:30:26;10.40;99.90
4596;DHT22;2310;49.978;8.742;2023-12-28T19:34:28;10.60;99.90
4596;DHT22;2310;49.978;8.742;2023-12-28T19:38:29;10.50;99.90
4596;DHT22;2310;49.978;8.742;2023-12-28T19:42:31;10.50;99.90
4596;DHT22;2310;49.978;8.742;2023-12-28T19:46:32;10.50;99.90
4596;DHT22;2310;49.978;8.742;2023-12-28T19:50:36;10.40;99.90
4596;DHT22;2310;49.978;8.742;2023-12-28T19:54:38;10.60;99.90
4596;DHT22;2310;49.978;8.742;2023-12-28T19:58:39;10.50;99.90
4596;DHT22;2310;49.978;8.742;2023-12-28T20:02:41;10.50;99.90
4596;DHT22;2310;49.978;8.742;2023-12-28T20:06:44;10.40;99.90
4596;DHT22;2310;49.978;8.742;2023-12-28T20:10:46;10.40;99.90
4596;DHT22;2310;49.978;8.742;2023-12-28T20:14:47;10.40;99.90
4596;DHT22;2310;49.978;8.742;2023-12-28T20:18:51;10.60;99.90
4596;DHT22;2310;49.978;8.742;2023-12-28T20:22:52;10.60;99.90
4596;DHT22;2310;49.978;8.742;2023-12-28T20:26:55;10.70;99.90
4596;DHT22;2310;49.978;8.742;2023-12-28T20:30:58;10.90;99.90
4596;DHT22;2310;49.978;8.742;2023-12-28T20:34:59;10.90;99.90
4596;DHT22;2310;49.978;8.742;2023-12-28T20:39:01;10.80;99.90
4596;DHT22;2310;49.978;8.742;2023-12-28T20:43:02;10.80;99.90
4596;DHT22;2310;49.978;8.742;2023-12-28T20:47:05;10.70;99.90
4596;DHT22;2310;49.978;8.742;2023-12-28T20:51:08;10.70;99.90
4596;DHT22;2310;49.978;8.742;2023-12-28T20:55:09;10.80;99.90
4596;DHT22;2310;49.978;8.742;2023-12-28T20:59:11;10.80;99.90
4596;DHT22;2310;49.978;8.742;2023-12-28T21:03:13;10.80;99.90
4596;DHT22;2310;49.978;8.742;2023-12-28T21:07:14;10.70;99.90
4596;DHT22;2310;49.978;8.742;2023-12-28T21:11:15;10.90;99.90
4596;DHT22;2310;49.978;8.742;2023-12-28T21:15:18;10.80;99.90
4596;DHT22;2310;49.978;8.742;2023-12-28T21:19:19;10.90;99.90
4596;DHT22;2310;49.978;8.742;2023-12-28T21:23:21;10.70;99.90
4596;DHT22;2310;49.978;8.742;2023-12-28T21:27:22;10.80;99.90
4596;DHT22;2310;49.978;8.742;2023-12-28T21:31:24;10.90;99.90
4596;DHT22;2310;49.978;8.742;2023-12-28T21:35:25;11.00;99.90
4596;DHT22;2310;49.978;8.742;2023-12-28T21:39:27;11.10;99.90
4596;DHT22;2310;49.978;8.742;2023-12-28T21:43:28;11.10;99.90
4596;DHT22;2310;49.978;8.742;2023-12-28T21:47:30;11.10;99.90
4596;DHT22;2310;49.978;8.742;2023-12-28T21:51:31;11.10;99.90
4596;DHT22;2310;49.978;8.742;2023-12-28T21:55:32;10.90;99.90
4596;DHT22;2310;49.978;8.742;2023-12-28T21:59:34;11.00;99.90
4596;DHT22;2310;49.978;8.742;2023-12-28T22:03:35;10.90;99.90
4596;DHT22;2310;49.978;8.742;2023-12-28T22:07:38;11.00;99.90
4596;DHT22;2310;49.978;8.742;2023-12-28T22:11:39;11.00;99.90
4596;DHT22;2310;49.978;8.742;2023-12-28T22:15:42;11.00;99.90
4596;DHT22;2310;49.978;8.742;2023-12-28T22:19:45;11.00;99.90
4596;DHT22;2310;49.978;8.742;2023-12-28T22:23:47;11.10;99.90
4596;DHT22;2310;49.978;8.742;2023-12-28T22:27:49;11.10;99.90
4596;DHT22;2310;49.978;8.742;2023-12-28T22:31:51;11.30;99.90
4596;DHT22;2310;49.978;8.742;2023-12-28T22:35:52;11.30;99.90
4596;DHT22;2310;49.978;8.742;2023-12-28T22:39:53;11.10;99.90
4596;DHT22;2310;49.978;8.742;2023-12-28T22:43:55;11.10;99.90
4596;DHT22;2310;49.978;8.742;2023-12-28T22:47:58;11.30;99.90
4596;DHT22;2310;49.978;8.742;2023-12-28T22:52:00;11.30;99.90
4596;DHT22;2310;49.978;8.742;2023-12-28T22:56:04;11.20;99.90
4596;DHT22;2310;49.978;8.742;2023-12-28T23:00:07;11.20;99.90
4596;DHT22;2310;49.978;8.742;2023-12-28T23:04:10;11.20;99.90
4596;DHT22;2310;49.978;8.742;2023-12-28T23:08:12;11.20;99.90
4596;DHT22;2310;49.978;8.742;2023-12-28T23:12:14;11.10;99.90
4596;DHT22;2310;49.978;8.742;2023-12-28T23:16:15;11.00;99.90
4596;DHT22;2310;49.978;8.742;2023-12-28T23:20:17;11.00;99.90
4596;DHT22;2310;49.978;8.742;2023-12-28T23:24:18;11.10;99.90
4596;DHT22;2310;49.978;8.742;2023-12-28T23:28:20;11.20;99.90
4596;DHT22;2310;49.978;8.742;2023-12-28T23:32:21;11.10;99.90
4596;DHT22;2310;49.978;8.742;2023-12-28T23:36:23;11.00;99.90
4596;DHT22;2310;49.978;8.742;2023-12-28T23:40:25;11.10;99.90
4596;DHT22;2310;49.978;8.742;2023-12-28T23:44:26;11.10;99.90
4596;DHT22;2310;49.978;8.742;2023-12-28T23:48:28;11.10;99.90
4596;DHT22;2310;49.978;8.742;2023-12-28T23:52:29;11.10;99.90
4596;DHT22;2310;49.978;8.742;2023-12-28T23:56:31;11.00;99.90
